createdAt,value
2023-03-06T00:01:34.415Z,3.76
2023-03-06T00:04:01.029Z,3.76
2023-03-06T00:06:27.655Z,3.75
2023-03-06T00:08:54.679Z,3.69
2023-03-06T00:11:21.257Z,3.70
2023-03-06T00:13:47.811Z,3.69
2023-03-06T00:16:14.980Z,3.67
2023-03-06T00:18:44.008Z,3.66
2023-03-06T00:21:10.493Z,3.76
2023-03-06T00:23:37.113Z,3.70
2023-03-06T00:26:07.669Z,3.69
2023-03-06T00:28:35.407Z,3.71
2023-03-06T00:31:02.207Z,3.71
2023-03-06T00:33:28.824Z,3.70
2023-03-06T00:35:55.294Z,3.74
2023-03-06T00:38:21.810Z,3.69
2023-03-06T00:40:49.229Z,3.72
2023-03-06T00:43:15.945Z,3.76
2023-03-06T00:45:43.027Z,3.69
2023-03-06T00:48:10.860Z,3.77
2023-03-06T00:50:37.572Z,3.73
2023-03-06T00:53:04.128Z,3.68
2023-03-06T00:55:31.124Z,3.68
2023-03-06T00:57:57.682Z,3.70
2023-03-06T01:00:26.359Z,3.72
2023-03-06T01:02:53.691Z,3.72
2023-03-06T01:05:22.093Z,3.71
2023-03-06T01:07:48.558Z,3.70
2023-03-06T01:10:15.187Z,3.63
2023-03-06T01:12:41.835Z,3.64
2023-03-06T01:15:09.136Z,3.63
2023-03-06T01:17:36.008Z,3.72
2023-03-06T01:20:03.155Z,3.67
2023-03-06T01:22:30.409Z,3.66
2023-03-06T01:24:57.002Z,3.67
2023-03-06T01:27:23.688Z,3.67
2023-03-06T01:29:50.224Z,3.64
2023-03-06T01:32:16.755Z,3.64
2023-03-06T01:34:43.433Z,3.57
2023-03-06T01:37:10.168Z,3.60
2023-03-06T01:39:36.661Z,3.67
2023-03-06T01:42:03.354Z,3.67
2023-03-06T01:44:30.370Z,3.62
2023-03-06T01:46:56.856Z,3.57
2023-03-06T01:49:31.102Z,3.63
2023-03-06T01:52:02.132Z,3.60
2023-03-06T01:54:31.903Z,3.61
2023-03-06T01:57:09.342Z,3.54
2023-03-06T01:59:36.202Z,3.55
2023-03-06T02:02:03.861Z,3.53
2023-03-06T02:04:30.772Z,3.52
2023-03-06T02:06:59.334Z,3.52
2023-03-06T02:09:30.096Z,3.55
2023-03-06T02:11:56.632Z,3.54
2023-03-06T02:14:23.480Z,3.56
2023-03-06T02:16:50.661Z,3.55
2023-03-06T02:19:26.660Z,3.51
2023-03-06T02:21:53.190Z,3.48
2023-03-06T02:24:38.378Z,3.55
2023-03-06T02:27:06.901Z,3.52
2023-03-06T02:29:33.665Z,3.43
2023-03-06T02:32:02.844Z,3.47
2023-03-06T02:34:29.391Z,3.52
2023-03-06T02:37:00.808Z,3.42
2023-03-06T02:39:30.228Z,3.46
2023-03-06T02:41:57.023Z,3.50
2023-03-06T02:44:24.467Z,3.40
2023-03-06T02:46:51.261Z,3.39
2023-03-06T02:49:18.052Z,3.34
2023-03-06T02:51:44.700Z,3.40
2023-03-06T02:54:11.944Z,3.37
2023-03-06T02:56:38.629Z,3.36
2023-03-06T02:59:10.793Z,3.33
2023-03-06T03:01:38.092Z,3.38
2023-03-06T03:04:04.822Z,3.40
2023-03-06T03:06:32.409Z,3.43
2023-03-06T03:08:59.230Z,3.43
2023-03-06T03:11:25.854Z,3.45
2023-03-06T03:13:53.192Z,3.44
2023-03-06T03:16:23.806Z,3.43
2023-03-06T03:18:51.166Z,3.37
2023-03-06T03:21:20.425Z,3.46
2023-03-06T03:23:48.223Z,3.42
2023-03-06T03:26:17.837Z,3.44
2023-03-06T03:28:50.194Z,3.39
2023-03-06T03:31:19.560Z,3.43
2023-03-06T03:33:46.512Z,3.40
2023-03-06T03:36:13.669Z,3.41
2023-03-06T03:38:44.349Z,3.37
2023-03-06T03:41:11.669Z,3.40
2023-03-06T03:43:38.365Z,3.40
2023-03-06T03:46:06.059Z,3.36
2023-03-06T03:48:33.443Z,3.36
2023-03-06T03:51:11.826Z,3.37
2023-03-06T03:53:44.197Z,3.42
2023-03-06T03:56:13.242Z,3.36
2023-03-06T03:58:48.596Z,3.40
2023-03-06T04:01:15.914Z,3.39
2023-03-06T04:03:42.706Z,3.37
2023-03-06T04:06:10.649Z,3.38
2023-03-06T04:08:38.166Z,3.44
2023-03-06T04:11:05.241Z,3.37
2023-03-06T04:13:32.392Z,3.40
2023-03-06T04:15:59.757Z,3.35
2023-03-06T04:18:28.680Z,3.43
2023-03-06T04:20:59.427Z,3.41
2023-03-06T04:23:27.885Z,3.42
2023-03-06T04:25:54.903Z,3.41
2023-03-06T04:28:22.442Z,3.38
2023-03-06T04:30:49.406Z,3.30
2023-03-06T04:33:17.456Z,3.34
2023-03-06T04:35:44.585Z,3.29
2023-03-06T04:38:17.562Z,3.26
2023-03-06T04:40:45.618Z,3.28
2023-03-06T04:43:12.533Z,3.27
2023-03-06T04:45:39.170Z,3.21
2023-03-06T04:48:06.254Z,3.17
2023-03-06T04:50:33.315Z,3.21
2023-03-06T04:53:01.312Z,3.20
2023-03-06T04:55:28.364Z,3.21
2023-03-06T04:57:55.308Z,3.18
2023-03-06T05:00:24.661Z,3.25
2023-03-06T05:02:51.408Z,3.27
2023-03-06T05:05:18.631Z,3.25
2023-03-06T05:07:45.215Z,3.21
2023-03-06T05:10:13.785Z,3.19
2023-03-06T05:12:40.380Z,3.18
2023-03-06T05:15:08.189Z,3.11
2023-03-06T05:17:34.762Z,3.09
2023-03-06T05:20:01.415Z,3.09
2023-03-06T05:22:28.139Z,3.15
2023-03-06T05:24:54.722Z,3.03
2023-03-06T05:27:21.586Z,2.98
2023-03-06T05:29:48.445Z,3.00
2023-03-06T05:32:16.404Z,3.01
2023-03-06T05:34:43.334Z,3.08
2023-03-06T05:37:10.073Z,3.12
2023-03-06T05:39:37.449Z,3.13
2023-03-06T05:42:04.401Z,3.07
2023-03-06T05:44:33.320Z,3.00
2023-03-06T05:47:00.476Z,3.03
2023-03-06T05:49:31.916Z,3.03
2023-03-06T05:52:00.852Z,3.03
2023-03-06T05:54:27.438Z,2.98
2023-03-06T05:56:54.084Z,2.97
2023-03-06T05:59:20.757Z,2.95
2023-03-06T06:01:47.605Z,2.98
2023-03-06T06:04:14.371Z,2.97
2023-03-06T06:06:41.043Z,2.93
2023-03-06T06:09:07.880Z,2.97
2023-03-06T06:11:34.568Z,3.01
2023-03-06T06:14:01.407Z,2.93
2023-03-06T06:16:28.190Z,2.89
2023-03-06T06:18:54.868Z,2.89
2023-03-06T06:21:21.457Z,2.99
2023-03-06T06:23:48.229Z,2.83
2023-03-06T06:26:14.978Z,2.94
2023-03-06T06:28:41.841Z,2.99
2023-03-06T06:31:10.450Z,2.97
2023-03-06T06:33:37.063Z,3.06
2023-03-06T06:36:03.839Z,3.09
2023-03-06T06:38:30.435Z,3.13
2023-03-06T06:41:27.203Z,3.15
2023-03-06T06:43:43.495Z,3.16
2023-03-06T06:46:38.842Z,3.15
2023-03-06T06:48:56.356Z,3.08
2023-03-06T06:51:23.145Z,3.04
2023-03-06T06:53:52.636Z,3.05
2023-03-06T06:56:19.180Z,3.07
2023-03-06T06:58:45.737Z,3.09
2023-03-06T07:01:13.337Z,3.10
2023-03-06T07:03:40.606Z,3.15
2023-03-06T07:06:07.366Z,3.15
2023-03-06T07:08:34.476Z,3.17
2023-03-06T07:11:09.890Z,3.17
2023-03-06T07:13:36.445Z,3.19
2023-03-06T07:16:03.064Z,3.19
2023-03-06T07:18:30.130Z,3.20
2023-03-06T07:20:57.114Z,3.23
2023-03-06T07:23:26.403Z,3.22
2023-03-06T07:25:56.873Z,3.21
2023-03-06T07:28:23.669Z,3.21
2023-03-06T07:30:50.257Z,3.27
2023-03-06T07:33:16.913Z,3.30
2023-03-06T07:35:44.216Z,3.32
2023-03-06T07:38:10.954Z,3.40
2023-03-06T07:40:38.746Z,3.44
2023-03-06T07:43:18.775Z,3.50
2023-03-06T07:45:59.616Z,3.55
2023-03-06T07:48:27.357Z,3.63
2023-03-06T07:51:02.200Z,3.64
2023-03-06T07:53:29.675Z,3.65
2023-03-06T07:55:56.411Z,3.63
2023-03-06T07:58:23.487Z,3.61
2023-03-06T08:00:49.926Z,3.62
2023-03-06T08:03:16.481Z,3.63
2023-03-06T08:05:44.151Z,3.63
2023-03-06T08:08:11.236Z,3.63
2023-03-06T08:10:37.778Z,3.61
2023-03-06T08:13:04.717Z,3.60
2023-03-06T08:15:31.195Z,3.59
2023-03-06T08:17:57.613Z,3.59
2023-03-06T08:20:24.065Z,3.61
2023-03-06T08:22:50.472Z,3.63
2023-03-06T08:25:16.995Z,3.63
2023-03-06T08:27:43.713Z,3.58
2023-03-06T08:30:10.573Z,3.60
2023-03-06T08:32:37.557Z,3.61
2023-03-06T08:35:04.831Z,3.67
2023-03-06T08:37:31.321Z,3.72
2023-03-06T08:39:57.773Z,3.79
2023-03-06T08:42:24.267Z,3.72
2023-03-06T08:44:50.736Z,3.79
2023-03-06T08:47:17.157Z,3.79
2023-03-06T08:49:43.609Z,3.81
2023-03-06T08:52:11.026Z,3.70
2023-03-06T08:54:38.562Z,3.73
2023-03-06T08:57:05.018Z,3.78
2023-03-06T08:59:31.405Z,3.80
2023-03-06T09:01:57.909Z,3.78
2023-03-06T09:04:24.396Z,3.83
2023-03-06T09:06:50.974Z,3.87
2023-03-06T09:09:17.644Z,3.96
2023-03-06T09:11:44.058Z,3.99
2023-03-06T09:14:10.564Z,3.97
2023-03-06T09:16:36.986Z,3.98
2023-03-06T09:19:03.435Z,3.97
2023-03-06T09:21:29.856Z,4.04
2023-03-06T09:23:56.348Z,4.10
2023-03-06T09:26:28.032Z,4.13
2023-03-06T09:28:59.509Z,4.16
2023-03-06T09:31:26.028Z,4.22
2023-03-06T09:33:52.456Z,4.23
2023-03-06T09:36:20.819Z,4.26
2023-03-06T09:38:49.618Z,4.31
2023-03-06T09:41:33.290Z,4.31
2023-03-06T09:44:20.560Z,4.30
2023-03-06T09:47:18.978Z,4.29
2023-03-06T09:50:00.898Z,4.24
2023-03-06T09:52:45.901Z,4.22
2023-03-06T09:55:19.308Z,4.25
2023-03-06T09:58:07.501Z,4.31
2023-03-06T10:00:38.465Z,4.36
2023-03-06T10:03:16.088Z,4.43
2023-03-06T10:05:47.038Z,4.49
2023-03-06T10:08:30.292Z,4.61
2023-03-06T10:11:03.496Z,4.57
2023-03-06T10:13:45.961Z,4.63
2023-03-06T10:16:29.623Z,4.62
2023-03-06T10:19:00.470Z,4.62
2023-03-06T10:22:02.968Z,4.61
2023-03-06T10:24:43.228Z,4.70
2023-03-06T10:27:39.808Z,4.71
2023-03-06T10:30:20.968Z,4.86
2023-03-06T10:33:02.111Z,4.92
2023-03-06T10:35:32.026Z,4.95
2023-03-06T10:38:21.506Z,4.99
2023-03-06T10:40:55.741Z,4.96
2023-03-06T10:43:22.680Z,4.99
2023-03-06T10:45:51.627Z,5.02
2023-03-06T10:48:27.105Z,5.07
2023-03-06T10:51:21.090Z,5.17
2023-03-06T10:53:55.126Z,5.18
2023-03-06T10:56:28.747Z,5.27
2023-03-06T10:59:18.186Z,5.31
2023-03-06T11:01:50.087Z,5.30
2023-03-06T11:04:24.015Z,5.35
2023-03-06T11:07:15.941Z,5.31
2023-03-06T11:09:44.387Z,5.28
2023-03-06T11:12:37.697Z,5.25
2023-03-06T11:15:07.480Z,5.29
2023-03-06T11:17:37.249Z,5.36
2023-03-06T11:20:20.691Z,5.31
2023-03-06T11:22:51.240Z,5.38
2023-03-06T11:25:19.149Z,5.40
2023-03-06T11:27:47.272Z,5.47
2023-03-06T11:30:23.831Z,5.58
2023-03-06T11:33:02.922Z,5.65
2023-03-06T11:35:47.273Z,5.70
2023-03-06T11:38:19.190Z,5.73
2023-03-06T11:40:58.683Z,5.73
2023-03-06T11:43:29.956Z,5.78
2023-03-06T11:46:00.588Z,5.80
2023-03-06T11:48:32.409Z,5.87
2023-03-06T11:51:06.518Z,5.89
2023-03-06T11:53:35.289Z,5.83
2023-03-06T11:56:23.399Z,5.85
2023-03-06T11:59:20.840Z,5.74
2023-03-06T12:01:51.646Z,5.70
2023-03-06T12:04:36.711Z,5.77
2023-03-06T12:07:07.607Z,5.80
2023-03-06T12:09:51.961Z,5.82
2023-03-06T12:12:32.855Z,5.86
2023-03-06T12:15:08.667Z,5.90
2023-03-06T12:17:44.672Z,5.93
2023-03-06T12:20:23.367Z,5.96
2023-03-06T12:23:02.401Z,5.95
2023-03-06T12:25:42.071Z,5.97
2023-03-06T12:28:42.383Z,5.99
2023-03-06T12:31:15.679Z,6.04
2023-03-06T12:34:09.844Z,6.07
2023-03-06T12:36:51.736Z,6.02
2023-03-06T12:39:48.153Z,6.02
2023-03-06T12:42:40.731Z,6.04
2023-03-06T12:45:34.954Z,6.03
2023-03-06T12:48:02.050Z,5.99
2023-03-06T12:50:33.488Z,6.03
2023-03-06T12:53:05.796Z,6.01
2023-03-06T12:55:46.610Z,5.97
2023-03-06T12:58:28.114Z,6.00
2023-03-06T13:01:09.630Z,6.08
2023-03-06T13:04:02.710Z,6.11
2023-03-06T13:06:39.246Z,6.11
2023-03-06T13:09:18.940Z,6.12
2023-03-06T13:12:17.260Z,6.18
2023-03-06T13:14:53.862Z,6.12
2023-03-06T13:17:20.850Z,6.10
2023-03-06T13:19:47.952Z,6.12
2023-03-06T13:22:26.652Z,6.09
2023-03-06T13:25:33.322Z,6.05
2023-03-06T13:28:03.321Z,6.07
2023-03-06T13:30:38.642Z,6.11
2023-03-06T13:33:26.486Z,6.07
2023-03-06T13:35:54.009Z,6.07
2023-03-06T13:38:37.093Z,6.17
2023-03-06T13:41:21.910Z,6.35
2023-03-06T13:43:53.157Z,6.51
2023-03-06T13:46:27.274Z,6.51
2023-03-06T13:49:15.503Z,6.51
2023-03-06T13:51:47.493Z,6.59
2023-03-06T13:54:25.388Z,6.62
2023-03-06T13:57:13.795Z,6.62
2023-03-06T14:00:10.349Z,6.59
2023-03-06T14:02:48.956Z,6.54
2023-03-06T14:05:17.142Z,6.49
2023-03-06T14:07:48.024Z,6.42
2023-03-06T14:10:14.390Z,6.36
2023-03-06T14:12:44.354Z,6.28
2023-03-06T14:15:25.410Z,6.25
2023-03-06T14:18:01.747Z,6.24
2023-03-06T14:20:44.209Z,6.26
2023-03-06T14:23:51.284Z,6.26
2023-03-06T14:26:20.252Z,6.23
2023-03-06T14:28:56.461Z,6.27
2023-03-06T14:31:24.954Z,6.29
2023-03-06T14:33:59.902Z,6.30
2023-03-06T14:36:32.391Z,6.30
2023-03-06T14:39:04.126Z,6.19
2023-03-06T14:41:32.693Z,6.18
2023-03-06T14:44:16.572Z,6.19
2023-03-06T14:46:47.288Z,6.19
2023-03-06T14:49:15.300Z,6.23
2023-03-06T14:51:44.342Z,6.23
2023-03-06T14:54:15.786Z,6.23
2023-03-06T14:56:44.009Z,6.11
2023-03-06T14:59:12.471Z,6.03
2023-03-06T15:01:42.053Z,5.97
2023-03-06T15:04:23.379Z,5.96
2023-03-06T15:06:49.997Z,5.92
2023-03-06T15:09:24.368Z,5.86
2023-03-06T15:12:02.757Z,5.80
2023-03-06T15:14:32.143Z,5.73
2023-03-06T15:17:16.922Z,5.66
2023-03-06T15:19:47.453Z,5.58
2023-03-06T15:22:30.712Z,5.62
2023-03-06T15:25:22.784Z,5.63
2023-03-06T15:27:51.557Z,5.65
2023-03-06T15:30:30.233Z,5.58
2023-03-06T15:33:17.943Z,5.53
2023-03-06T15:36:01.616Z,5.47
2023-03-06T15:38:40.794Z,5.36
2023-03-06T15:41:21.058Z,5.32
2023-03-06T15:43:48.623Z,5.30
2023-03-06T15:46:15.107Z,5.21
2023-03-06T15:48:54.930Z,5.18
2023-03-06T15:51:21.379Z,5.12
2023-03-06T15:53:47.960Z,4.94
2023-03-06T15:56:14.389Z,4.79
2023-03-06T15:58:41.342Z,4.60
2023-03-06T16:01:13.177Z,4.46
2023-03-06T16:03:39.627Z,4.37
2023-03-06T16:06:06.046Z,4.34
2023-03-06T16:08:32.475Z,4.28
2023-03-06T16:10:59.111Z,4.26
2023-03-06T16:13:27.258Z,4.22
2023-03-06T16:15:54.336Z,4.25
2023-03-06T16:18:20.828Z,4.28
2023-03-06T16:20:47.257Z,4.31
2023-03-06T16:23:15.252Z,4.33
2023-03-06T16:25:43.604Z,4.29
2023-03-06T16:28:12.184Z,4.26
2023-03-06T16:30:38.839Z,4.29
2023-03-06T16:33:05.649Z,4.28
2023-03-06T16:35:32.072Z,4.30
2023-03-06T16:37:59.850Z,4.27
2023-03-06T16:40:32.422Z,4.28
2023-03-06T16:42:59.056Z,4.23
2023-03-06T16:45:25.517Z,4.25
2023-03-06T16:47:52.151Z,4.30
2023-03-06T16:50:40.535Z,4.31
2023-03-06T16:53:07.693Z,4.33
2023-03-06T16:55:34.688Z,4.30
2023-03-06T16:58:01.128Z,4.27
2023-03-06T17:00:32.909Z,4.24
2023-03-06T17:03:00.859Z,4.26
2023-03-06T17:05:28.660Z,4.26
2023-03-06T17:07:55.773Z,4.22
2023-03-06T17:10:26.140Z,4.21
2023-03-06T17:12:52.986Z,4.20
2023-03-06T17:15:19.772Z,4.16
2023-03-06T17:17:46.327Z,4.10
2023-03-06T17:20:13.505Z,4.10
2023-03-06T17:22:41.408Z,4.05
2023-03-06T17:25:08.996Z,4.04
2023-03-06T17:27:36.354Z,4.03
2023-03-06T17:30:04.258Z,4.05
2023-03-06T17:32:32.158Z,3.97
2023-03-06T17:34:58.825Z,3.93
2023-03-06T17:38:01.434Z,3.88
2023-03-06T17:40:29.698Z,3.78
2023-03-06T17:42:56.480Z,3.79
2023-03-06T17:45:22.970Z,3.74
2023-03-06T17:47:53.378Z,3.69
2023-03-06T17:50:20.046Z,3.70
2023-03-06T17:52:46.970Z,3.65
2023-03-06T17:55:13.848Z,3.73
2023-03-06T17:57:40.418Z,3.64
2023-03-06T18:00:07.738Z,3.69
2023-03-06T18:02:38.800Z,3.68
2023-03-06T18:05:06.209Z,3.61
2023-03-06T18:07:32.735Z,3.62
2023-03-06T18:09:59.278Z,3.65
2023-03-06T18:12:25.963Z,3.64
2023-03-06T18:14:52.487Z,3.67
2023-03-06T18:17:19.020Z,3.53
2023-03-06T18:19:45.549Z,3.57
2023-03-06T18:22:12.068Z,3.53
2023-03-06T18:24:38.574Z,3.42
2023-03-06T18:27:05.187Z,3.46
2023-03-06T18:29:31.679Z,3.41
2023-03-06T18:31:59.278Z,3.35
2023-03-06T18:34:26.062Z,3.40
2023-03-06T18:36:52.977Z,3.40
2023-03-06T18:39:21.442Z,3.43
2023-03-06T18:41:48.330Z,3.41
2023-03-06T18:44:16.171Z,3.41
2023-03-06T18:46:43.332Z,3.43
2023-03-06T18:49:11.461Z,3.38
2023-03-06T18:51:38.238Z,3.39
2023-03-06T18:54:06.321Z,3.36
2023-03-06T18:56:33.361Z,3.28
2023-03-06T18:59:06.752Z,3.26
2023-03-06T19:01:33.818Z,3.32
2023-03-06T19:04:04.085Z,3.37
2023-03-06T19:06:30.948Z,3.30
2023-03-06T19:08:58.821Z,3.24
2023-03-06T19:11:26.883Z,3.32
2023-03-06T19:13:53.988Z,3.37
2023-03-06T19:16:23.590Z,3.33
2023-03-06T19:18:50.481Z,3.31
2023-03-06T19:21:21.825Z,3.22
2023-03-06T19:23:48.733Z,3.31
2023-03-06T19:26:16.264Z,3.14
2023-03-06T19:28:43.256Z,3.14
2023-03-06T19:31:19.571Z,3.16
2023-03-06T19:33:47.608Z,3.14
2023-03-06T19:36:15.066Z,3.17
2023-03-06T19:38:42.157Z,3.20
2023-03-06T19:41:13.362Z,3.07
2023-03-06T19:43:41.813Z,3.06
2023-03-06T19:46:14.721Z,3.09
2023-03-06T19:48:42.189Z,3.07
2023-03-06T19:51:09.797Z,3.06
2023-03-06T19:53:36.655Z,3.00
2023-03-06T19:56:08.731Z,3.06
2023-03-06T19:58:35.728Z,3.02
2023-03-06T20:01:10.707Z,3.02
2023-03-06T20:03:37.569Z,2.98
2023-03-06T20:06:08.961Z,2.92
2023-03-06T20:08:36.422Z,2.99
2023-03-06T20:11:03.168Z,2.92
2023-03-06T20:13:30.042Z,2.90
2023-03-06T20:15:57.871Z,2.98
2023-03-06T20:18:24.372Z,2.89
2023-03-06T20:21:01.129Z,2.87
2023-03-06T20:23:27.808Z,2.83
2023-03-06T20:25:54.713Z,2.88
2023-03-06T20:28:22.172Z,2.85
2023-03-06T20:30:49.177Z,2.92
2023-03-06T20:33:16.732Z,2.78
2023-03-06T20:35:43.826Z,2.82
2023-03-06T20:38:10.764Z,2.80
2023-03-06T20:40:38.887Z,2.74
2023-03-06T20:43:05.602Z,2.82
2023-03-06T20:45:32.792Z,2.84
2023-03-06T20:47:59.254Z,2.84
2023-03-06T20:50:26.231Z,2.78
2023-03-06T20:52:56.688Z,2.81
2023-03-06T20:55:23.197Z,2.89
2023-03-06T20:57:50.481Z,2.81
2023-03-06T21:00:18.653Z,2.88
2023-03-06T21:02:45.244Z,2.81
2023-03-06T21:05:11.728Z,2.81
2023-03-06T21:07:39.458Z,2.77
2023-03-06T21:10:06.787Z,2.73
2023-03-06T21:12:33.272Z,2.72
2023-03-06T21:14:59.869Z,2.74
2023-03-06T21:17:27.393Z,2.66
2023-03-06T21:19:53.835Z,2.76
2023-03-06T21:22:20.273Z,2.73
2023-03-06T21:24:46.768Z,2.70
2023-03-06T21:27:13.282Z,2.67
2023-03-06T21:29:39.775Z,2.57
2023-03-06T21:32:06.252Z,2.61
2023-03-06T21:34:33.229Z,2.55
2023-03-06T21:36:59.812Z,2.54
2023-03-06T21:39:26.246Z,2.52
2023-03-06T21:41:52.754Z,2.44
2023-03-06T21:44:19.644Z,2.46
2023-03-06T21:46:46.446Z,2.41
2023-03-06T21:49:12.906Z,2.39
2023-03-06T21:51:39.549Z,2.32
2023-03-06T21:54:06.599Z,2.38
2023-03-06T21:56:33.514Z,2.28
2023-03-06T21:59:00.153Z,2.35
2023-03-06T22:01:28.581Z,2.40
2023-03-06T22:03:55.408Z,2.31
2023-03-06T22:06:24.137Z,2.31
2023-03-06T22:08:51.110Z,2.36
2023-03-06T22:11:19.871Z,2.35
2023-03-06T22:13:47.943Z,2.28
2023-03-06T22:16:15.147Z,2.38
2023-03-06T22:18:46.045Z,2.31
2023-03-06T22:21:14.972Z,2.33
2023-03-06T22:23:41.717Z,2.34
2023-03-06T22:26:12.529Z,2.39
2023-03-06T22:28:39.852Z,2.46
2023-03-06T22:31:14.733Z,2.43
2023-03-06T22:33:41.392Z,2.51
2023-03-06T22:36:10.805Z,2.47
2023-03-06T22:38:39.857Z,2.55
2023-03-06T22:41:07.188Z,2.60
2023-03-06T22:43:34.638Z,2.62
2023-03-06T22:46:02.466Z,2.66
2023-03-06T22:48:29.183Z,2.69
2023-03-06T22:50:55.653Z,2.70
2023-03-06T22:53:22.098Z,2.71
2023-03-06T22:55:48.593Z,2.71
2023-03-06T22:58:15.317Z,2.73
2023-03-06T23:00:41.739Z,2.77
2023-03-06T23:03:08.296Z,2.80
2023-03-06T23:05:34.774Z,2.81
2023-03-06T23:08:01.198Z,2.81
2023-03-06T23:10:27.624Z,2.87
2023-03-06T23:13:13.453Z,2.85
2023-03-06T23:16:02.397Z,2.89
2023-03-06T23:18:47.401Z,2.86
2023-03-06T23:21:34.127Z,2.90
2023-03-06T23:24:19.430Z,2.93
2023-03-06T23:26:46.216Z,2.87
2023-03-06T23:29:12.915Z,2.84
2023-03-06T23:31:39.704Z,2.88
2023-03-06T23:34:06.244Z,2.86
2023-03-06T23:36:32.901Z,2.88
2023-03-06T23:38:59.357Z,2.90
2023-03-06T23:41:26.106Z,2.95
2023-03-06T23:43:55.056Z,2.92
2023-03-06T23:46:22.103Z,2.92
2023-03-06T23:48:48.554Z,2.94
2023-03-06T23:51:20.224Z,2.94
2023-03-06T23:53:47.956Z,2.92
2023-03-06T23:56:14.483Z,2.99
2023-03-06T23:58:41.139Z,2.98
